Погода Орловскийна неделю

Ростовская область, Россия

20 - 26 мая
  • 20мая
    Сегодня
    +11°
    +23°
    Практически безоблачно
    ВремяПогодаТемператураВлажностьДавлениеВетер, м/сВероятность осадков
    00:00Практически безоблачно+11°C88 %752 мм2.3 м/с2 %
    03:00Практически безоблачно+10°C91 %752 мм2.4 м/с2 %
    06:00Ясно и безоблачно+12°C83 %753 мм2.0 м/с2 %
    09:00Ясно и безоблачно+19°C56 %753 мм1.9 м/с2 %
    12:00Практически безоблачно+22°C45 %753 мм2.3 м/с2 %
    15:00Практически безоблачно+23°C41 %753 мм2.0 м/с5 %
    18:00Практически безоблачно+22°C43 %752 мм2.3 м/с5 %
    21:00Ясно и безоблачно+15°C68 %753 мм2.4 м/с2 %
  • 21мая
    Вторник
    +11°
    +25°
    Ясно и безоблачно
    ВремяПогодаТемператураВлажностьДавлениеВетер, м/сВероятность осадков
    00:00Ясно и безоблачно+13°C74 %753 мм1.7 м/с2 %
    03:00Ясно и безоблачно+13°C76 %754 мм2.4 м/с2 %
    06:00Ясно и безоблачно+13°C70 %754 мм1.6 м/с2 %
    09:00Ясно и безоблачно+22°C41 %755 мм2.2 м/с2 %
    12:00Ясно и безоблачно+25°C30 %755 мм2.4 м/с2 %
    15:00Ясно и безоблачно+25°C28 %755 мм2.5 м/с2 %
    18:00Ясно и безоблачно+24°C32 %754 мм2.1 м/с2 %
    21:00Ясно и безоблачно+17°C42 %754 мм2.6 м/с2 %
  • 22мая
    Среда
    +11°
    +26°
    Ясно и безоблачно
    ВремяПогодаТемператураВлажностьДавлениеВетер, м/сВероятность осадков
    00:00Ясно и безоблачно+14°C52 %754 мм2.3 м/с2 %
    03:00Ясно и безоблачно+12°C49 %754 мм2.5 м/с2 %
    06:00Ясно и безоблачно+14°C49 %754 мм2.5 м/с2 %
    09:00Ясно и безоблачно+23°C39 %754 мм2.9 м/с2 %
    12:00Ясно и безоблачно+25°C32 %754 мм3.3 м/с2 %
    15:00Ясно и безоблачно+26°C30 %753 мм3.4 м/с2 %
    18:00Ясно и безоблачно+24°C30 %752 мм3.0 м/с2 %
    21:00Ясно и безоблачно+17°C45 %752 мм2.4 м/с2 %
  • 23мая
    Четверг
    +13°
    +27°
    Ясно и безоблачно
    ВремяПогодаТемператураВлажностьДавлениеВетер, м/сВероятность осадков
    00:00Ясно и безоблачно+15°C42 %752 мм3.4 м/с2 %
    03:00Ясно и безоблачно+13°C53 %752 мм2.7 м/с2 %
    06:00Ясно и безоблачно+13°C56 %752 мм2.6 м/с2 %
    09:00Ясно и безоблачно+21°C40 %753 мм3.2 м/с2 %
    12:00Ясно и безоблачно+25°C24 %752 мм5.1 м/с2 %
    15:00Ясно и безоблачно+26°C23 %751 мм4.5 м/с2 %
    18:00Ясно и безоблачно+25°C30 %751 мм3.4 м/с2 %
    21:00Ясно и безоблачно+19°C36 %752 мм3.3 м/с2 %
  • 24мая
    Пятница
    +11°
    +26°
    Ясно и безоблачно
    ВремяПогодаТемператураВлажностьДавлениеВетер, м/сВероятность осадков
    00:00Ясно и безоблачно+17°C43 %752 мм6.1 м/с2 %
    03:00Ясно и безоблачно+14°C61 %753 мм5.2 м/с2 %
    06:00Ясно и безоблачно+15°C75 %754 мм5.5 м/с2 %
    09:00Практически безоблачно+20°C48 %755 мм7.0 м/с2 %
    12:00Ясно и безоблачно+24°C39 %755 мм7.6 м/с2 %
    15:00Ясно и безоблачно+25°C33 %755 мм7.9 м/с13 %
    18:00Ясно и безоблачно+23°C29 %755 мм7.7 м/с5 %
    21:00Ясно и безоблачно+19°C25 %757 мм6.8 м/с2 %
Мы используем cookies
Соглашаюсь